Etusivu
METAR-TAF:

METAR-TAF

Lentoasemat :

Hwangen kansallispuisto, Zimbabwe

Leveyspiiri: 18-38S, Pituuspiiri: 027-00E, korkeus merenpinnasta: 1079 m

Tämänhetkinen sää

Tämä raportti tehtiin 5 tuntia ja 57 minuuttia sitten, kello 06.00 UTC
Tuuli 3 kn idästä/kaakosta
Lämpötila 9°C
Kosteus 57%
Ilmanpaine 1023 hPa
Näkyvyys: 6000 m

METAR: FVWN 130600Z 11003KT 6000 09/01 Q1023

Aika: 13:57 (11:57 UTC)


TAF: puuttuu

Säähavainnot ja -ennusteet yli 4000 lentoasemalta (METAR- ja TAF-raportit).

Käytössä olevat sääasemat on merkitty karttaan keltaisilla ja punaisilla pisteillä.

Aseta hiiri pisteen päälle nähdäksesi sääaseman nimen.

Klikkaa sitten nähdäksesi säähavainnot ja -ennusteet.

Kartan vaihtaminen: klikkaa mustalla rastilla varustettuja vihreitä pisteitä, niin voit zoomata sisään; viivalla varustettua vihreää pistettä, niin voit zoomata ulos tai vihreitä nuolia, niin pääset viereisille kartoille.


METAR-TAF: